sensor_id;sensor_type;location;lat;lon;timestamp;P1;durP1;ratioP1;P2;durP2;ratioP2
23716;SDS011;22094;52.130;5.598;2023-05-24T00:01:20;15.15;;;5.40;;
23716;SDS011;22094;52.130;5.598;2023-05-24T00:03:53;19.58;;;5.63;;
23716;SDS011;22094;52.130;5.598;2023-05-24T00:06:23;17.45;;;5.78;;
23716;SDS011;22094;52.130;5.598;2023-05-24T00:08:50;19.52;;;6.53;;
23716;SDS011;22094;52.130;5.598;2023-05-24T00:11:16;13.75;;;5.45;;
23716;SDS011;22094;52.130;5.598;2023-05-24T00:13:42;17.50;;;5.90;;
23716;SDS011;22094;52.130;5.598;2023-05-24T00:16:08;18.88;;;5.72;;
23716;SDS011;22094;52.130;5.598;2023-05-24T00:18:34;17.20;;;5.75;;
23716;SDS011;22094;52.130;5.598;2023-05-24T00:21:04;20.00;;;6.03;;
23716;SDS011;22094;52.130;5.598;2023-05-24T00:23:31;12.70;;;5.80;;
23716;SDS011;22094;52.130;5.598;2023-05-24T00:25:57;12.77;;;5.82;;
23716;SDS011;22094;52.130;5.598;2023-05-24T00:28:22;18.55;;;6.88;;
23716;SDS011;22094;52.130;5.598;2023-05-24T00:30:48;20.77;;;6.95;;
23716;SDS011;22094;52.130;5.598;2023-05-24T00:33:15;19.10;;;6.57;;
23716;SDS011;22094;52.130;5.598;2023-05-24T00:35:40;16.95;;;6.68;;
23716;SDS011;22094;52.130;5.598;2023-05-24T00:38:06;19.38;;;6.72;;
23716;SDS011;22094;52.130;5.598;2023-05-24T00:40:31;19.55;;;7.10;;
23716;SDS011;22094;52.130;5.598;2023-05-24T00:42:57;18.85;;;7.32;;
23716;SDS011;22094;52.130;5.598;2023-05-24T00:45:23;21.23;;;7.55;;
23716;SDS011;22094;52.130;5.598;2023-05-24T00:47:48;18.88;;;7.35;;
23716;SDS011;22094;52.130;5.598;2023-05-24T00:50:14;16.85;;;6.38;;
23716;SDS011;22094;52.130;5.598;2023-05-24T00:52:41;18.27;;;6.75;;
23716;SDS011;22094;52.130;5.598;2023-05-24T00:55:07;24.70;;;7.20;;
23716;SDS011;22094;52.130;5.598;2023-05-24T00:57:34;22.08;;;7.45;;
23716;SDS011;22094;52.130;5.598;2023-05-24T01:00:01;16.50;;;7.15;;
23716;SDS011;22094;52.130;5.598;2023-05-24T01:02:29;18.45;;;6.55;;
23716;SDS011;22094;52.130;5.598;2023-05-24T01:04:56;20.20;;;7.32;;
23716;SDS011;22094;52.130;5.598;2023-05-24T01:10:29;17.65;;;7.10;;
23716;SDS011;22094;52.130;5.598;2023-05-24T01:13:14;20.25;;;6.68;;
23716;SDS011;22094;52.130;5.598;2023-05-24T01:16:09;18.60;;;6.70;;
23716;SDS011;22094;52.130;5.598;2023-05-24T01:18:53;23.70;;;7.07;;
23716;SDS011;22094;52.130;5.598;2023-05-24T01:24:29;21.42;;;6.72;;
23716;SDS011;22094;52.130;5.598;2023-05-24T01:27:12;21.60;;;7.45;;
23716;SDS011;22094;52.130;5.598;2023-05-24T01:29:39;18.33;;;6.70;;
23716;SDS011;22094;52.130;5.598;2023-05-24T01:32:05;16.30;;;6.82;;
23716;SDS011;22094;52.130;5.598;2023-05-24T01:34:31;23.88;;;7.32;;
23716;SDS011;22094;52.130;5.598;2023-05-24T01:36:57;22.73;;;7.30;;
23716;SDS011;22094;52.130;5.598;2023-05-24T01:39:23;19.30;;;7.05;;
23716;SDS011;22094;52.130;5.598;2023-05-24T01:44:50;21.83;;;7.57;;
23716;SDS011;22094;52.130;5.598;2023-05-24T01:50:01;27.98;;;7.57;;
23716;SDS011;22094;52.130;5.598;2023-05-24T01:52:35;21.40;;;6.57;;
23716;SDS011;22094;52.130;5.598;2023-05-24T01:55:02;24.33;;;6.47;;
23716;SDS011;22094;52.130;5.598;2023-05-24T01:57:29;33.33;;;8.02;;
23716;SDS011;22094;52.130;5.598;2023-05-24T01:59:56;20.58;;;7.00;;
23716;SDS011;22094;52.130;5.598;2023-05-24T02:02:24;23.95;;;7.03;;
23716;SDS011;22094;52.130;5.598;2023-05-24T02:04:50;30.35;;;7.68;;
23716;SDS011;22094;52.130;5.598;2023-05-24T02:07:15;25.65;;;7.22;;
23716;SDS011;22094;52.130;5.598;2023-05-24T02:09:41;23.30;;;7.63;;
23716;SDS011;22094;52.130;5.598;2023-05-24T02:12:07;25.05;;;7.40;;
23716;SDS011;22094;52.130;5.598;2023-05-24T02:14:33;27.67;;;8.45;;
23716;SDS011;22094;52.130;5.598;2023-05-24T02:17:01;21.17;;;7.72;;
23716;SDS011;22094;52.130;5.598;2023-05-24T02:19:27;25.05;;;8.48;;
23716;SDS011;22094;52.130;5.598;2023-05-24T02:21:53;33.35;;;9.23;;
23716;SDS011;22094;52.130;5.598;2023-05-24T02:24:18;25.50;;;8.65;;
23716;SDS011;22094;52.130;5.598;2023-05-24T02:26:44;27.10;;;7.88;;
23716;SDS011;22094;52.130;5.598;2023-05-24T02:29:10;25.85;;;8.30;;
23716;SDS011;22094;52.130;5.598;2023-05-24T02:31:35;26.50;;;7.82;;
23716;SDS011;22094;52.130;5.598;2023-05-24T02:34:01;25.42;;;7.72;;
23716;SDS011;22094;52.130;5.598;2023-05-24T02:36:27;23.35;;;7.82;;
23716;SDS011;22094;52.130;5.598;2023-05-24T02:38:52;28.13;;;8.43;;
23716;SDS011;22094;52.130;5.598;2023-05-24T02:41:18;28.45;;;8.35;;
23716;SDS011;22094;52.130;5.598;2023-05-24T02:43:44;25.63;;;7.97;;
23716;SDS011;22094;52.130;5.598;2023-05-24T02:46:10;27.98;;;8.45;;
23716;SDS011;22094;52.130;5.598;2023-05-24T02:48:36;32.20;;;8.82;;
23716;SDS011;22094;52.130;5.598;2023-05-24T02:51:02;23.02;;;8.07;;
23716;SDS011;22094;52.130;5.598;2023-05-24T02:53:28;21.63;;;7.88;;
23716;SDS011;22094;52.130;5.598;2023-05-24T02:55:55;22.80;;;7.80;;
23716;SDS011;22094;52.130;5.598;2023-05-24T02:58:20;27.30;;;9.43;;
23716;SDS011;22094;52.130;5.598;2023-05-24T03:00:47;22.65;;;8.35;;
23716;SDS011;22094;52.130;5.598;2023-05-24T03:03:12;23.08;;;8.30;;
23716;SDS011;22094;52.130;5.598;2023-05-24T03:05:38;27.50;;;8.60;;
23716;SDS011;22094;52.130;5.598;2023-05-24T03:08:04;27.38;;;8.00;;
23716;SDS011;22094;52.130;5.598;2023-05-24T03:10:30;29.40;;;8.75;;
23716;SDS011;22094;52.130;5.598;2023-05-24T03:12:56;30.33;;;8.55;;
23716;SDS011;22094;52.130;5.598;2023-05-24T03:15:21;23.85;;;8.05;;
23716;SDS011;22094;52.130;5.598;2023-05-24T03:17:47;28.73;;;8.45;;
23716;SDS011;22094;52.130;5.598;2023-05-24T03:20:12;28.90;;;8.95;;
23716;SDS011;22094;52.130;5.598;2023-05-24T03:22:39;28.13;;;9.10;;
23716;SDS011;22094;52.130;5.598;2023-05-24T03:25:05;36.22;;;8.13;;
23716;SDS011;22094;52.130;5.598;2023-05-24T03:27:32;23.40;;;8.30;;
23716;SDS011;22094;52.130;5.598;2023-05-24T03:29:58;31.60;;;9.60;;
23716;SDS011;22094;52.130;5.598;2023-05-24T03:32:23;26.35;;;8.27;;
23716;SDS011;22094;52.130;5.598;2023-05-24T03:34:49;28.73;;;8.70;;
23716;SDS011;22094;52.130;5.598;2023-05-24T03:37:15;25.85;;;7.90;;
23716;SDS011;22094;52.130;5.598;2023-05-24T03:39:40;31.40;;;8.27;;
23716;SDS011;22094;52.130;5.598;2023-05-24T03:42:06;24.25;;;8.10;;
23716;SDS011;22094;52.130;5.598;2023-05-24T03:44:32;26.02;;;8.35;;
23716;SDS011;22094;52.130;5.598;2023-05-24T03:46:57;26.60;;;8.45;;
23716;SDS011;22094;52.130;5.598;2023-05-24T03:49:23;23.45;;;7.90;;
23716;SDS011;22094;52.130;5.598;2023-05-24T03:51:48;31.52;;;8.73;;
23716;SDS011;22094;52.130;5.598;2023-05-24T03:54:14;29.65;;;9.05;;
23716;SDS011;22094;52.130;5.598;2023-05-24T03:56:39;30.25;;;8.73;;
23716;SDS011;22094;52.130;5.598;2023-05-24T03:59:05;38.38;;;9.45;;
23716;SDS011;22094;52.130;5.598;2023-05-24T04:01:31;32.38;;;9.27;;
23716;SDS011;22094;52.130;5.598;2023-05-24T04:03:57;31.17;;;9.95;;
23716;SDS011;22094;52.130;5.598;2023-05-24T04:06:22;37.97;;;10.18;;
23716;SDS011;22094;52.130;5.598;2023-05-24T04:08:56;40.33;;;12.25;;
23716;SDS011;22094;52.130;5.598;2023-05-24T04:11:23;39.58;;;12.73;;
23716;SDS011;22094;52.130;5.598;2023-05-24T04:13:52;39.80;;;13.65;;
23716;SDS011;22094;52.130;5.598;2023-05-24T04:16:19;38.45;;;13.80;;
23716;SDS011;22094;52.130;5.598;2023-05-24T04:18:48;38.60;;;13.63;;
23716;SDS011;22094;52.130;5.598;2023-05-24T04:21:16;40.10;;;13.65;;
23716;SDS011;22094;52.130;5.598;2023-05-24T04:23:42;35.15;;;13.70;;
23716;SDS011;22094;52.130;5.598;2023-05-24T04:26:07;34.35;;;12.82;;
23716;SDS011;22094;52.130;5.598;2023-05-24T04:28:34;36.40;;;11.88;;
23716;SDS011;22094;52.130;5.598;2023-05-24T04:31:02;34.50;;;11.75;;
23716;SDS011;22094;52.130;5.598;2023-05-24T04:33:30;31.60;;;10.82;;
23716;SDS011;22094;52.130;5.598;2023-05-24T04:35:56;28.73;;;10.38;;
23716;SDS011;22094;52.130;5.598;2023-05-24T04:38:25;30.83;;;9.43;;
23716;SDS011;22094;52.130;5.598;2023-05-24T04:40:53;28.15;;;8.77;;
23716;SDS011;22094;52.130;5.598;2023-05-24T04:43:20;24.33;;;8.07;;
23716;SDS011;22094;52.130;5.598;2023-05-24T04:45:46;22.33;;;7.25;;
23716;SDS011;22094;52.130;5.598;2023-05-24T04:48:12;25.05;;;6.95;;
23716;SDS011;22094;52.130;5.598;2023-05-24T04:50:38;20.40;;;6.28;;
23716;SDS011;22094;52.130;5.598;2023-05-24T04:53:06;21.98;;;5.53;;
23716;SDS011;22094;52.130;5.598;2023-05-24T04:55:32;20.42;;;5.50;;
23716;SDS011;22094;52.130;5.598;2023-05-24T04:57:57;17.33;;;5.78;;
23716;SDS011;22094;52.130;5.598;2023-05-24T05:00:23;20.58;;;5.00;;
23716;SDS011;22094;52.130;5.598;2023-05-24T05:02:49;16.38;;;5.43;;
23716;SDS011;22094;52.130;5.598;2023-05-24T05:05:14;17.30;;;4.63;;
23716;SDS011;22094;52.130;5.598;2023-05-24T05:07:40;19.05;;;5.60;;
23716;SDS011;22094;52.130;5.598;2023-05-24T05:10:06;14.65;;;4.68;;
23716;SDS011;22094;52.130;5.598;2023-05-24T05:12:32;18.05;;;5.30;;
23716;SDS011;22094;52.130;5.598;2023-05-24T05:14:57;17.63;;;4.90;;
23716;SDS011;22094;52.130;5.598;2023-05-24T05:17:23;18.33;;;4.75;;
23716;SDS011;22094;52.130;5.598;2023-05-24T05:19:48;15.73;;;5.15;;
23716;SDS011;22094;52.130;5.598;2023-05-24T05:22:14;16.63;;;4.60;;
23716;SDS011;22094;52.130;5.598;2023-05-24T05:24:40;17.60;;;4.50;;
23716;SDS011;22094;52.130;5.598;2023-05-24T05:27:06;13.90;;;4.45;;
23716;SDS011;22094;52.130;5.598;2023-05-24T05:29:31;17.73;;;4.90;;
23716;SDS011;22094;52.130;5.598;2023-05-24T05:31:57;19.75;;;4.57;;
23716;SDS011;22094;52.130;5.598;2023-05-24T05:34:22;17.98;;;4.90;;
23716;SDS011;22094;52.130;5.598;2023-05-24T05:36:48;16.80;;;4.65;;
23716;SDS011;22094;52.130;5.598;2023-05-24T05:39:13;19.35;;;4.80;;
23716;SDS011;22094;52.130;5.598;2023-05-24T05:41:39;15.05;;;4.80;;
23716;SDS011;22094;52.130;5.598;2023-05-24T05:44:08;15.80;;;4.35;;
23716;SDS011;22094;52.130;5.598;2023-05-24T05:46:34;16.48;;;4.13;;
23716;SDS011;22094;52.130;5.598;2023-05-24T05:49:00;14.32;;;4.22;;
23716;SDS011;22094;52.130;5.598;2023-05-24T05:51:26;14.18;;;4.50;;
23716;SDS011;22094;52.130;5.598;2023-05-24T05:53:51;15.20;;;4.75;;
23716;SDS011;22094;52.130;5.598;2023-05-24T05:56:17;14.68;;;4.20;;
23716;SDS011;22094;52.130;5.598;2023-05-24T05:58:43;14.55;;;4.28;;
23716;SDS011;22094;52.130;5.598;2023-05-24T06:01:08;14.40;;;4.28;;
23716;SDS011;22094;52.130;5.598;2023-05-24T06:03:34;15.23;;;4.10;;
23716;SDS011;22094;52.130;5.598;2023-05-24T06:05:59;17.42;;;5.03;;
23716;SDS011;22094;52.130;5.598;2023-05-24T06:08:25;16.08;;;4.15;;
23716;SDS011;22094;52.130;5.598;2023-05-24T06:10:51;22.95;;;4.40;;
23716;SDS011;22094;52.130;5.598;2023-05-24T06:13:17;14.20;;;4.15;;
23716;SDS011;22094;52.130;5.598;2023-05-24T06:15:42;17.98;;;4.10;;
23716;SDS011;22094;52.130;5.598;2023-05-24T06:18:08;15.23;;;4.32;;
23716;SDS011;22094;52.130;5.598;2023-05-24T06:20:33;14.55;;;4.03;;
23716;SDS011;22094;52.130;5.598;2023-05-24T06:23:00;16.30;;;4.38;;
23716;SDS011;22094;52.130;5.598;2023-05-24T06:25:26;16.13;;;4.93;;
23716;SDS011;22094;52.130;5.598;2023-05-24T06:27:54;16.55;;;5.40;;
23716;SDS011;22094;52.130;5.598;2023-05-24T06:30:20;15.75;;;4.20;;
23716;SDS011;22094;52.130;5.598;2023-05-24T06:32:45;17.13;;;4.40;;
23716;SDS011;22094;52.130;5.598;2023-05-24T06:35:11;18.88;;;5.63;;
23716;SDS011;22094;52.130;5.598;2023-05-24T06:37:37;19.42;;;4.70;;
23716;SDS011;22094;52.130;5.598;2023-05-24T06:40:04;16.38;;;4.13;;
23716;SDS011;22094;52.130;5.598;2023-05-24T06:42:31;21.92;;;4.68;;
23716;SDS011;22094;52.130;5.598;2023-05-24T06:44:56;15.38;;;4.38;;
23716;SDS011;22094;52.130;5.598;2023-05-24T06:47:22;22.67;;;4.15;;
23716;SDS011;22094;52.130;5.598;2023-05-24T06:49:47;16.15;;;4.35;;
23716;SDS011;22094;52.130;5.598;2023-05-24T06:52:13;18.00;;;4.60;;
23716;SDS011;22094;52.130;5.598;2023-05-24T06:54:40;17.92;;;4.38;;
23716;SDS011;22094;52.130;5.598;2023-05-24T06:57:06;13.25;;;4.00;;
23716;SDS011;22094;52.130;5.598;2023-05-24T06:59:31;14.57;;;4.15;;
23716;SDS011;22094;52.130;5.598;2023-05-24T07:01:57;20.50;;;4.30;;
23716;SDS011;22094;52.130;5.598;2023-05-24T07:04:23;21.10;;;4.28;;
23716;SDS011;22094;52.130;5.598;2023-05-24T07:06:49;16.23;;;4.50;;
23716;SDS011;22094;52.130;5.598;2023-05-24T07:09:16;13.35;;;3.90;;
23716;SDS011;22094;52.130;5.598;2023-05-24T07:11:42;18.52;;;4.20;;
23716;SDS011;22094;52.130;5.598;2023-05-24T07:14:08;15.52;;;4.72;;
23716;SDS011;22094;52.130;5.598;2023-05-24T07:16:34;17.33;;;4.00;;
23716;SDS011;22094;52.130;5.598;2023-05-24T07:19:00;13.13;;;3.65;;
23716;SDS011;22094;52.130;5.598;2023-05-24T07:21:26;13.27;;;4.00;;
23716;SDS011;22094;52.130;5.598;2023-05-24T07:23:52;11.85;;;3.72;;
23716;SDS011;22094;52.130;5.598;2023-05-24T07:26:18;18.63;;;4.07;;
23716;SDS011;22094;52.130;5.598;2023-05-24T07:28:43;16.75;;;4.32;;
23716;SDS011;22094;52.130;5.598;2023-05-24T07:31:09;16.77;;;3.78;;
23716;SDS011;22094;52.130;5.598;2023-05-24T07:33:35;15.95;;;4.00;;
23716;SDS011;22094;52.130;5.598;2023-05-24T07:36:02;14.68;;;3.97;;
23716;SDS011;22094;52.130;5.598;2023-05-24T07:38:29;15.02;;;4.13;;
23716;SDS011;22094;52.130;5.598;2023-05-24T07:40:55;14.40;;;3.90;;
23716;SDS011;22094;52.130;5.598;2023-05-24T07:43:23;15.32;;;3.58;;
23716;SDS011;22094;52.130;5.598;2023-05-24T07:45:51;12.98;;;4.03;;
23716;SDS011;22094;52.130;5.598;2023-05-24T07:48:17;16.83;;;4.32;;
23716;SDS011;22094;52.130;5.598;2023-05-24T07:50:47;17.08;;;3.95;;
23716;SDS011;22094;52.130;5.598;2023-05-24T07:53:14;17.38;;;3.80;;
23716;SDS011;22094;52.130;5.598;2023-05-24T07:55:40;16.05;;;3.58;;
23716;SDS011;22094;52.130;5.598;2023-05-24T07:58:06;11.85;;;3.60;;
23716;SDS011;22094;52.130;5.598;2023-05-24T08:00:32;14.48;;;3.90;;
23716;SDS011;22094;52.130;5.598;2023-05-24T08:02:58;11.18;;;3.53;;
23716;SDS011;22094;52.130;5.598;2023-05-24T08:05:24;12.82;;;3.53;;
23716;SDS011;22094;52.130;5.598;2023-05-24T08:07:50;18.45;;;4.10;;
23716;SDS011;22094;52.130;5.598;2023-05-24T08:10:16;14.70;;;4.10;;
23716;SDS011;22094;52.130;5.598;2023-05-24T08:12:42;12.70;;;3.50;;
23716;SDS011;22094;52.130;5.598;2023-05-24T08:15:08;16.42;;;4.10;;
23716;SDS011;22094;52.130;5.598;2023-05-24T08:17:34;13.90;;;4.22;;
23716;SDS011;22094;52.130;5.598;2023-05-24T08:20:00;12.45;;;3.88;;
23716;SDS011;22094;52.130;5.598;2023-05-24T08:22:26;12.63;;;3.80;;
23716;SDS011;22094;52.130;5.598;2023-05-24T08:24:51;14.32;;;3.92;;
23716;SDS011;22094;52.130;5.598;2023-05-24T08:27:17;15.57;;;4.00;;
23716;SDS011;22094;52.130;5.598;2023-05-24T08:29:43;18.55;;;4.43;;
23716;SDS011;22094;52.130;5.598;2023-05-24T08:32:09;12.80;;;3.30;;
23716;SDS011;22094;52.130;5.598;2023-05-24T08:34:35;19.42;;;4.00;;
23716;SDS011;22094;52.130;5.598;2023-05-24T08:37:01;11.88;;;3.35;;
23716;SDS011;22094;52.130;5.598;2023-05-24T08:39:27;14.90;;;4.00;;
23716;SDS011;22094;52.130;5.598;2023-05-24T08:41:53;11.95;;;3.22;;
23716;SDS011;22094;52.130;5.598;2023-05-24T08:44:19;16.40;;;4.38;;
23716;SDS011;22094;52.130;5.598;2023-05-24T08:46:47;12.65;;;3.17;;
23716;SDS011;22094;52.130;5.598;2023-05-24T08:49:13;23.35;;;4.70;;
23716;SDS011;22094;52.130;5.598;2023-05-24T08:51:40;15.57;;;4.00;;
23716;SDS011;22094;52.130;5.598;2023-05-24T08:54:06;23.23;;;3.75;;
23716;SDS011;22094;52.130;5.598;2023-05-24T08:56:33;23.35;;;4.72;;
23716;SDS011;22094;52.130;5.598;2023-05-24T08:58:59;24.40;;;4.82;;
23716;SDS011;22094;52.130;5.598;2023-05-24T09:01:25;19.35;;;4.32;;
23716;SDS011;22094;52.130;5.598;2023-05-24T09:03:51;14.40;;;4.00;;
23716;SDS011;22094;52.130;5.598;2023-05-24T09:06:18;14.27;;;3.92;;
23716;SDS011;22094;52.130;5.598;2023-05-24T09:08:44;14.25;;;3.65;;
23716;SDS011;22094;52.130;5.598;2023-05-24T09:11:10;16.10;;;3.90;;
23716;SDS011;22094;52.130;5.598;2023-05-24T09:13:36;13.88;;;3.30;;
23716;SDS011;22094;52.130;5.598;2023-05-24T09:16:02;12.88;;;3.58;;
23716;SDS011;22094;52.130;5.598;2023-05-24T09:18:28;13.18;;;3.58;;
23716;SDS011;22094;52.130;5.598;2023-05-24T09:20:53;16.20;;;3.20;;
23716;SDS011;22094;52.130;5.598;2023-05-24T09:23:19;16.35;;;3.38;;
23716;SDS011;22094;52.130;5.598;2023-05-24T09:25:46;8.27;;;3.42;;
23716;SDS011;22094;52.130;5.598;2023-05-24T09:28:13;10.15;;;3.38;;
23716;SDS011;22094;52.130;5.598;2023-05-24T09:30:42;14.18;;;3.70;;
23716;SDS011;22094;52.130;5.598;2023-05-24T09:33:08;27.60;;;4.57;;
23716;SDS011;22094;52.130;5.598;2023-05-24T09:35:35;21.73;;;4.15;;
23716;SDS011;22094;52.130;5.598;2023-05-24T09:38:01;11.93;;;3.53;;
23716;SDS011;22094;52.130;5.598;2023-05-24T09:40:27;16.00;;;3.83;;
23716;SDS011;22094;52.130;5.598;2023-05-24T09:43:04;15.18;;;4.15;;
23716;SDS011;22094;52.130;5.598;2023-05-24T09:45:42;19.08;;;3.55;;
23716;SDS011;22094;52.130;5.598;2023-05-24T09:48:13;11.70;;;3.50;;
23716;SDS011;22094;52.130;5.598;2023-05-24T09:50:41;15.13;;;3.35;;
23716;SDS011;22094;52.130;5.598;2023-05-24T09:53:09;15.45;;;3.38;;
23716;SDS011;22094;52.130;5.598;2023-05-24T09:55:35;12.63;;;3.83;;
23716;SDS011;22094;52.130;5.598;2023-05-24T09:58:05;12.38;;;3.30;;
23716;SDS011;22094;52.130;5.598;2023-05-24T10:00:36;11.27;;;3.35;;
23716;SDS011;22094;52.130;5.598;2023-05-24T10:03:05;12.57;;;3.47;;
23716;SDS011;22094;52.130;5.598;2023-05-24T10:05:40;15.10;;;3.40;;
23716;SDS011;22094;52.130;5.598;2023-05-24T10:08:08;14.52;;;3.40;;
23716;SDS011;22094;52.130;5.598;2023-05-24T10:10:35;11.00;;;3.30;;
23716;SDS011;22094;52.130;5.598;2023-05-24T10:13:01;16.58;;;5.65;;
23716;SDS011;22094;52.130;5.598;2023-05-24T10:15:28;15.15;;;3.60;;
23716;SDS011;22094;52.130;5.598;2023-05-24T10:17:55;17.10;;;4.00;;
23716;SDS011;22094;52.130;5.598;2023-05-24T10:20:21;15.75;;;3.60;;
23716;SDS011;22094;52.130;5.598;2023-05-24T10:22:50;23.15;;;3.80;;
23716;SDS011;22094;52.130;5.598;2023-05-24T10:25:21;17.00;;;4.13;;
23716;SDS011;22094;52.130;5.598;2023-05-24T10:27:51;15.65;;;3.33;;
23716;SDS011;22094;52.130;5.598;2023-05-24T10:33:09;13.23;;;3.47;;
23716;SDS011;22094;52.130;5.598;2023-05-24T10:35:37;14.80;;;3.45;;
23716;SDS011;22094;52.130;5.598;2023-05-24T10:38:05;14.93;;;3.40;;
23716;SDS011;22094;52.130;5.598;2023-05-24T10:40:31;13.02;;;4.35;;
23716;SDS011;22094;52.130;5.598;2023-05-24T10:42:57;13.98;;;3.58;;
23716;SDS011;22094;52.130;5.598;2023-05-24T10:47:49;16.67;;;4.63;;
23716;SDS011;22094;52.130;5.598;2023-05-24T10:50:19;13.25;;;4.20;;
23716;SDS011;22094;52.130;5.598;2023-05-24T10:52:47;11.75;;;3.50;;
23716;SDS011;22094;52.130;5.598;2023-05-24T10:55:13;14.07;;;3.63;;
23716;SDS011;22094;52.130;5.598;2023-05-24T10:57:39;12.40;;;3.38;;
23716;SDS011;22094;52.130;5.598;2023-05-24T11:02:49;11.35;;;3.33;;
23716;SDS011;22094;52.130;5.598;2023-05-24T11:05:15;9.52;;;3.28;;
23716;SDS011;22094;52.130;5.598;2023-05-24T11:07:42;8.60;;;3.08;;
23716;SDS011;22094;52.130;5.598;2023-05-24T11:10:09;12.80;;;3.38;;
23716;SDS011;22094;52.130;5.598;2023-05-24T11:12:39;13.25;;;3.78;;
23716;SDS011;22094;52.130;5.598;2023-05-24T11:15:07;10.70;;;3.13;;
23716;SDS011;22094;52.130;5.598;2023-05-24T11:18:11;10.10;;;3.60;;
23716;SDS011;22094;52.130;5.598;2023-05-24T11:20:37;15.50;;;3.45;;
23716;SDS011;22094;52.130;5.598;2023-05-24T11:23:05;21.60;;;4.35;;
23716;SDS011;22094;52.130;5.598;2023-05-24T11:25:36;10.30;;;3.55;;
23716;SDS011;22094;52.130;5.598;2023-05-24T11:28:05;12.63;;;3.42;;
23716;SDS011;22094;52.130;5.598;2023-05-24T11:30:32;14.90;;;3.53;;
23716;SDS011;22094;52.130;5.598;2023-05-24T11:32:58;11.95;;;3.17;;
23716;SDS011;22094;52.130;5.598;2023-05-24T11:35:25;16.90;;;3.50;;
23716;SDS011;22094;52.130;5.598;2023-05-24T11:37:54;11.30;;;3.03;;
23716;SDS011;22094;52.130;5.598;2023-05-24T11:40:21;15.32;;;3.58;;
23716;SDS011;22094;52.130;5.598;2023-05-24T11:42:48;13.50;;;3.72;;
23716;SDS011;22094;52.130;5.598;2023-05-24T11:45:16;11.75;;;3.10;;
23716;SDS011;22094;52.130;5.598;2023-05-24T11:47:42;7.70;;;3.17;;
23716;SDS011;22094;52.130;5.598;2023-05-24T11:50:09;9.73;;;3.17;;
23716;SDS011;22094;52.130;5.598;2023-05-24T11:52:39;15.07;;;3.88;;
23716;SDS011;22094;52.130;5.598;2023-05-24T11:55:05;12.32;;;3.35;;
23716;SDS011;22094;52.130;5.598;2023-05-24T11:57:37;29.42;;;5.10;;
23716;SDS011;22094;52.130;5.598;2023-05-24T12:00:09;22.48;;;4.10;;
23716;SDS011;22094;52.130;5.598;2023-05-24T12:02:40;12.18;;;3.60;;
23716;SDS011;22094;52.130;5.598;2023-05-24T12:05:07;12.10;;;3.30;;
23716;SDS011;22094;52.130;5.598;2023-05-24T12:07:34;8.18;;;3.30;;
23716;SDS011;22094;52.130;5.598;2023-05-24T12:10:01;14.05;;;3.83;;
23716;SDS011;22094;52.130;5.598;2023-05-24T12:12:28;17.40;;;3.70;;
23716;SDS011;22094;52.130;5.598;2023-05-24T12:14:54;18.50;;;3.88;;
23716;SDS011;22094;52.130;5.598;2023-05-24T12:17:20;24.63;;;4.32;;
23716;SDS011;22094;52.130;5.598;2023-05-24T12:19:47;18.55;;;3.95;;
23716;SDS011;22094;52.130;5.598;2023-05-24T12:22:14;17.58;;;4.15;;
23716;SDS011;22094;52.130;5.598;2023-05-24T12:24:40;10.60;;;3.50;;
23716;SDS011;22094;52.130;5.598;2023-05-24T12:27:06;16.75;;;3.67;;
23716;SDS011;22094;52.130;5.598;2023-05-24T12:29:39;10.85;;;3.50;;
23716;SDS011;22094;52.130;5.598;2023-05-24T12:32:06;14.05;;;3.70;;
23716;SDS011;22094;52.130;5.598;2023-05-24T12:34:36;12.55;;;3.70;;
23716;SDS011;22094;52.130;5.598;2023-05-24T12:37:02;12.02;;;3.40;;
23716;SDS011;22094;52.130;5.598;2023-05-24T12:39:28;10.05;;;2.97;;
23716;SDS011;22094;52.130;5.598;2023-05-24T12:41:59;9.07;;;3.40;;
23716;SDS011;22094;52.130;5.598;2023-05-24T12:44:28;14.30;;;4.18;;
23716;SDS011;22094;52.130;5.598;2023-05-24T12:46:56;9.10;;;3.25;;
23716;SDS011;22094;52.130;5.598;2023-05-24T12:49:22;11.63;;;3.60;;
23716;SDS011;22094;52.130;5.598;2023-05-24T12:51:49;9.45;;;3.78;;
23716;SDS011;22094;52.130;5.598;2023-05-24T12:54:17;10.55;;;3.08;;
23716;SDS011;22094;52.130;5.598;2023-05-24T12:56:43;10.88;;;3.42;;
23716;SDS011;22094;52.130;5.598;2023-05-24T12:59:09;16.80;;;4.00;;
23716;SDS011;22094;52.130;5.598;2023-05-24T13:01:35;12.80;;;3.63;;
23716;SDS011;22094;52.130;5.598;2023-05-24T13:04:01;8.50;;;3.47;;
23716;SDS011;22094;52.130;5.598;2023-05-24T13:06:27;10.40;;;3.38;;
23716;SDS011;22094;52.130;5.598;2023-05-24T13:08:52;11.02;;;3.50;;
23716;SDS011;22094;52.130;5.598;2023-05-24T13:11:19;11.82;;;3.60;;
23716;SDS011;22094;52.130;5.598;2023-05-24T13:13:45;14.23;;;3.75;;
23716;SDS011;22094;52.130;5.598;2023-05-24T13:16:11;10.68;;;3.33;;
23716;SDS011;22094;52.130;5.598;2023-05-24T13:18:37;11.82;;;4.00;;
23716;SDS011;22094;52.130;5.598;2023-05-24T13:21:03;15.63;;;3.78;;
23716;SDS011;22094;52.130;5.598;2023-05-24T13:23:30;13.45;;;4.10;;
23716;SDS011;22094;52.130;5.598;2023-05-24T13:25:57;10.80;;;3.78;;
23716;SDS011;22094;52.130;5.598;2023-05-24T13:28:23;10.35;;;3.67;;
23716;SDS011;22094;52.130;5.598;2023-05-24T13:30:49;11.77;;;3.50;;
23716;SDS011;22094;52.130;5.598;2023-05-24T13:33:14;12.15;;;3.63;;
23716;SDS011;22094;52.130;5.598;2023-05-24T13:35:40;14.27;;;3.83;;
23716;SDS011;22094;52.130;5.598;2023-05-24T13:38:06;17.92;;;3.70;;
23716;SDS011;22094;52.130;5.598;2023-05-24T13:40:33;9.23;;;3.33;;
23716;SDS011;22094;52.130;5.598;2023-05-24T13:42:58;13.30;;;3.25;;
23716;SDS011;22094;52.130;5.598;2023-05-24T13:45:24;10.07;;;3.85;;
23716;SDS011;22094;52.130;5.598;2023-05-24T13:47:51;10.23;;;3.42;;
23716;SDS011;22094;52.130;5.598;2023-05-24T13:50:17;11.75;;;3.45;;
23716;SDS011;22094;52.130;5.598;2023-05-24T13:52:46;18.92;;;3.83;;
23716;SDS011;22094;52.130;5.598;2023-05-24T13:55:12;10.90;;;3.17;;
23716;SDS011;22094;52.130;5.598;2023-05-24T13:57:38;6.78;;;2.80;;
23716;SDS011;22094;52.130;5.598;2023-05-24T14:00:04;9.85;;;3.00;;
23716;SDS011;22094;52.130;5.598;2023-05-24T14:02:30;9.55;;;3.05;;
23716;SDS011;22094;52.130;5.598;2023-05-24T14:04:56;13.05;;;3.22;;
23716;SDS011;22094;52.130;5.598;2023-05-24T14:07:22;10.07;;;3.20;;
23716;SDS011;22094;52.130;5.598;2023-05-24T14:09:48;14.25;;;3.50;;
23716;SDS011;22094;52.130;5.598;2023-05-24T14:12:14;24.17;;;4.30;;
23716;SDS011;22094;52.130;5.598;2023-05-24T14:14:39;10.77;;;3.10;;
23716;SDS011;22094;52.130;5.598;2023-05-24T14:17:05;8.40;;;3.35;;
23716;SDS011;22094;52.130;5.598;2023-05-24T14:19:31;8.65;;;3.10;;
23716;SDS011;22094;52.130;5.598;2023-05-24T14:21:58;8.38;;;3.15;;
23716;SDS011;22094;52.130;5.598;2023-05-24T14:24:24;7.88;;;3.08;;
23716;SDS011;22094;52.130;5.598;2023-05-24T14:26:50;10.85;;;3.00;;
23716;SDS011;22094;52.130;5.598;2023-05-24T14:29:15;16.58;;;4.00;;
23716;SDS011;22094;52.130;5.598;2023-05-24T14:31:41;9.43;;;3.28;;
23716;SDS011;22094;52.130;5.598;2023-05-24T14:34:07;9.40;;;2.90;;
23716;SDS011;22094;52.130;5.598;2023-05-24T14:36:35;14.13;;;3.60;;
23716;SDS011;22094;52.130;5.598;2023-05-24T14:39:02;14.18;;;3.58;;
23716;SDS011;22094;52.130;5.598;2023-05-24T14:41:29;11.23;;;3.40;;
23716;SDS011;22094;52.130;5.598;2023-05-24T14:43:55;9.00;;;3.15;;
23716;SDS011;22094;52.130;5.598;2023-05-24T14:46:20;13.27;;;3.15;;
23716;SDS011;22094;52.130;5.598;2023-05-24T14:48:46;6.47;;;3.00;;
23716;SDS011;22094;52.130;5.598;2023-05-24T14:51:12;11.15;;;3.25;;
23716;SDS011;22094;52.130;5.598;2023-05-24T14:53:38;11.35;;;2.92;;